Time;durP1;ratioP1;P1;durP2;ratioP2;P2;SDS_P1;SDS_P2;PMS_P1;PMS_P2;Temp;Humidity;BMP_temperature;BMP_pressure;BME280_temperature;BME280_humidity;BME280_pressure;Samples;Min_cycle;Max_cycle;Signal;HPM_P1;HPM_P2
2024/01/26 00:01:13;;;;;;;;;;;;;;;6.31;56.64;101100.81;5371241;32;33961;-63
2024/01/26 00:04:16;;;;;;;;;;;;;;;6.44;56.94;101098.09;5372624;32;35149;-65
2024/01/26 00:07:18;;;;;;;;;;;;;;;6.28;57.17;101104.31;5366008;32;35330;-64
2024/01/26 00:10:21;;;;;;;;;;;;;;;6.49;56.04;101105.84;5371268;32;35349;-64
2024/01/26 00:13:23;;;;;;;;;;;;;;;6.47;56.58;101099.78;5359848;32;34808;-63
2024/01/26 00:16:25;;;;;;;;;;;;;;;6.77;56.05;101095.97;5370119;32;35356;-64
2024/01/26 00:19:27;;;;;;;;;;;;;;;6.42;56.62;101089.38;5369705;32;34576;-63
2024/01/26 00:22:29;;;;;;;;;;;;;;;7.10;54.75;101093.78;5368866;32;34217;-62
2024/01/26 00:25:32;;;;;;;;;;;;;;;6.71;55.63;101103.88;5356964;32;34970;-63
2024/01/26 00:28:34;;;;;;;;;;;;;;;6.47;56.04;101115.44;5369476;32;35808;-66
2024/01/26 00:31:36;;;;;;;;;;;;;;;6.73;55.33;101115.16;5369212;32;34176;-63
2024/01/26 00:34:38;;;;;;;;;;;;;;;6.21;56.68;101113.97;5374800;32;34638;-62
2024/01/26 00:37:40;;;;;;;;;;;;;;;6.40;56.48;101119.88;5369507;32;34037;-67
2024/01/26 00:40:43;;;;;;;;;;;;;;;6.17;56.90;101124.44;5373686;32;34997;-65
2024/01/26 00:43:45;;;;;;;;;;;;;;;6.85;55.33;101119.38;5371443;32;34816;-64
2024/01/26 00:46:47;;;;;;;;;;;;;;;6.61;55.43;101120.50;5371709;32;34681;-65
2024/01/26 00:49:49;;;;;;;;;;;;;;;7.11;53.88;101119.03;5358406;32;35441;-66
2024/01/26 00:52:54;;;;;;;;;;;;;;;7.32;53.57;101130.06;5371438;32;34209;-66
2024/01/26 00:55:56;;;;;;;;;;;;;;;7.19;53.72;101128.50;5372749;32;35487;-62
2024/01/26 00:58:59;;;;;;;;;;;;;;;7.03;53.79;101119.16;5370097;32;35418;-63
2024/01/26 01:02:01;;;;;;;;;;;;;;;7.06;53.65;101112.13;5374015;32;35000;-66
2024/01/26 01:05:06;;;;;;;;;;;;;;;6.47;55.82;101095.41;5355519;32;34562;-66
2024/01/26 01:08:09;;;;;;;;;;;;;;;6.45;56.41;101096.34;5369973;32;35772;-65
2024/01/26 01:11:11;;;;;;;;;;;;;;;6.14;57.62;101103.59;5375360;32;35101;-62
2024/01/26 01:14:13;;;;;;;;;;;;;;;6.44;57.23;101095.47;5368545;32;35388;-62
2024/01/26 01:17:15;;;;;;;;;;;;;;;6.43;56.92;101111.13;5373621;32;35071;-67
2024/01/26 01:20:18;;;;;;;;;;;;;;;6.20;57.65;101120.06;5356341;32;35151;-65
2024/01/26 01:23:20;;;;;;;;;;;;;;;6.99;55.46;101117.44;5370724;32;34318;-65
2024/01/26 01:26:22;;;;;;;;;;;;;;;6.51;56.53;101128.47;5367804;32;34716;-65
2024/01/26 01:29:24;;;;;;;;;;;;;;;6.53;56.41;101138.03;5370192;32;34697;-63
2024/01/26 01:32:26;;;;;;;;;;;;;;;6.74;56.11;101132.56;5371178;32;34928;-66
2024/01/26 01:35:29;;;;;;;;;;;;;;;6.30;57.33;101141.72;5355385;32;35464;-64
2024/01/26 01:38:31;;;;;;;;;;;;;;;6.56;56.47;101138.84;5360300;32;35642;-62
2024/01/26 01:41:33;;;;;;;;;;;;;;;6.58;56.54;101138.84;5356347;32;35586;-65
2024/01/26 01:44:35;;;;;;;;;;;;;;;6.40;57.15;101132.94;5372112;32;34360;-66
2024/01/26 01:47:37;;;;;;;;;;;;;;;6.01;58.22;101128.09;5369220;32;34874;-64
2024/01/26 01:50:40;;;;;;;;;;;;;;;6.83;56.25;101126.34;5358132;32;35406;-65
2024/01/26 01:53:42;;;;;;;;;;;;;;;6.17;57.66;101120.09;5377815;32;35513;-65
2024/01/26 01:56:44;;;;;;;;;;;;;;;6.22;57.78;101122.66;5354722;32;34578;-63
2024/01/26 01:59:47;;;;;;;;;;;;;;;6.10;57.88;101123.62;5371345;32;35516;-66
2024/01/26 02:02:49;;;;;;;;;;;;;;;5.60;59.29;101131.81;5342121;32;855249;-65
2024/01/26 02:05:51;;;;;;;;;;;;;;;6.29;57.43;101115.63;5371542;32;35222;-62
2024/01/26 02:08:54;;;;;;;;;;;;;;;6.26;57.34;101118.28;5368631;32;35073;-66
2024/01/26 02:11:56;;;;;;;;;;;;;;;5.98;58.05;101122.00;5367343;32;34907;-66
2024/01/26 02:14:58;;;;;;;;;;;;;;;6.29;57.65;101116.50;5368491;32;35577;-67
2024/01/26 02:18:01;;;;;;;;;;;;;;;6.20;57.65;101134.87;5368066;32;35556;-66
2024/01/26 02:21:03;;;;;;;;;;;;;;;6.22;58.07;101143.53;5363950;32;35037;-64
2024/01/26 02:24:05;;;;;;;;;;;;;;;6.02;58.22;101145.47;5369635;32;34673;-64
2024/01/26 02:27:08;;;;;;;;;;;;;;;6.61;56.59;101146.63;5371205;32;35706;-65
2024/01/26 02:30:10;;;;;;;;;;;;;;;6.37;56.67;101145.13;5369250;32;35390;-65
2024/01/26 02:33:12;;;;;;;;;;;;;;;6.78;55.93;101129.91;5368457;32;34636;-64
2024/01/26 02:36:15;;;;;;;;;;;;;;;6.77;55.83;101143.84;5358446;32;35547;-65
2024/01/26 02:39:17;;;;;;;;;;;;;;;6.34;57.25;101148.66;5370838;32;34394;-64
2024/01/26 02:42:19;;;;;;;;;;;;;;;5.82;58.48;101138.63;5373818;32;34623;-62
2024/01/26 02:45:24;;;;;;;;;;;;;;;5.91;58.66;101128.13;5369039;32;34282;-67
2024/01/26 02:48:26;;;;;;;;;;;;;;;5.92;58.61;101135.09;5374898;32;35572;-66
2024/01/26 02:51:28;;;;;;;;;;;;;;;6.02;58.13;101138.50;5369900;32;35298;-65
2024/01/26 02:54:30;;;;;;;;;;;;;;;6.01;57.63;101135.91;5368368;32;35413;-64
2024/01/26 02:57:32;;;;;;;;;;;;;;;5.96;58.16;101141.16;5374246;32;34249;-66
2024/01/26 03:00:35;;;;;;;;;;;;;;;5.63;58.56;101143.09;5371168;32;34820;-64
2024/01/26 03:03:37;;;;;;;;;;;;;;;5.90;58.04;101144.66;5373654;32;34571;-64
2024/01/26 03:06:39;;;;;;;;;;;;;;;5.94;57.72;101138.56;5355930;32;35524;-61
2024/01/26 03:09:41;;;;;;;;;;;;;;;5.98;58.21;101123.72;5376828;32;34385;-63
2024/01/26 03:12:43;;;;;;;;;;;;;;;5.79;58.97;101129.94;5358074;32;34931;-63
2024/01/26 03:15:50;;;;;;;;;;;;;;;5.64;59.45;101143.97;5356397;32;34885;-65
2024/01/26 03:18:52;;;;;;;;;;;;;;;5.62;59.46;101135.31;5375894;32;34992;-62
2024/01/26 03:21:54;;;;;;;;;;;;;;;5.79;58.90;101143.00;5369530;32;35012;-63
2024/01/26 03:24:56;;;;;;;;;;;;;;;6.06;57.99;101132.37;5376785;32;34306;-62
2024/01/26 03:27:59;;;;;;;;;;;;;;;5.75;59.24;101142.16;5358838;32;34520;-62
2024/01/26 03:31:01;;;;;;;;;;;;;;;6.03;58.43;101123.72;5358521;32;34590;-62
2024/01/26 03:34:04;;;;;;;;;;;;;;;5.70;59.12;101123.06;5371955;32;35337;-62
2024/01/26 03:37:07;;;;;;;;;;;;;;;5.97;58.40;101120.25;5370079;32;35118;-65
2024/01/26 03:40:09;;;;;;;;;;;;;;;5.65;59.35;101119.62;5361259;32;35187;-65
2024/01/26 03:43:11;;;;;;;;;;;;;;;5.80;58.45;101110.84;5369506;32;34685;-66
2024/01/26 03:46:14;;;;;;;;;;;;;;;5.59;59.05;101110.09;5373967;32;35053;-65
2024/01/26 03:49:16;;;;;;;;;;;;;;;5.55;59.67;101113.62;5371551;32;34691;-65
2024/01/26 03:52:18;;;;;;;;;;;;;;;5.38;59.70;101118.94;5358506;32;34610;-62
2024/01/26 03:55:21;;;;;;;;;;;;;;;5.84;58.56;101126.44;5372329;32;34997;-62
2024/01/26 03:58:23;;;;;;;;;;;;;;;5.53;59.31;101140.56;5355273;32;35137;-63
2024/01/26 04:01:25;;;;;;;;;;;;;;;5.68;58.94;101151.78;5360670;32;35954;-62
2024/01/26 04:04:27;;;;;;;;;;;;;;;6.09;57.24;101162.81;5352805;32;35362;-62
2024/01/26 04:07:30;;;;;;;;;;;;;;;5.51;58.62;101171.88;5371684;32;35379;-68
2024/01/26 04:10:32;;;;;;;;;;;;;;;6.45;56.52;101185.97;5364447;32;34634;-67
2024/01/26 04:13:34;;;;;;;;;;;;;;;6.29;56.81;101196.56;5370877;32;34323;-65
2024/01/26 04:16:36;;;;;;;;;;;;;;;6.46;55.56;101200.75;5374457;32;34641;-66
2024/01/26 04:19:38;;;;;;;;;;;;;;;5.95;57.17;101213.34;5370916;32;34818;-64
2024/01/26 04:22:41;;;;;;;;;;;;;;;5.81;57.46;101207.34;5374379;32;34868;-62
2024/01/26 04:25:43;;;;;;;;;;;;;;;6.60;55.96;101213.69;5367214;32;34944;-65
2024/01/26 04:28:45;;;;;;;;;;;;;;;6.73;55.29;101210.06;5362854;32;34341;-65
2024/01/26 04:31:48;;;;;;;;;;;;;;;6.63;55.20;101221.47;5356398;32;34941;-66
2024/01/26 04:34:50;;;;;;;;;;;;;;;6.40;56.17;101226.06;5371797;32;34278;-65
2024/01/26 04:37:52;;;;;;;;;;;;;;;6.00;57.67;101222.91;5372307;32;34359;-63
2024/01/26 04:40:54;;;;;;;;;;;;;;;5.92;58.19;101221.19;5369483;32;34961;-65
2024/01/26 04:43:57;;;;;;;;;;;;;;;6.28;57.30;101228.78;5374796;32;34680;-64
2024/01/26 04:46:59;;;;;;;;;;;;;;;6.19;57.11;101221.91;5374093;32;34911;-63
2024/01/26 04:50:01;;;;;;;;;;;;;;;5.73;58.68;101227.38;5360562;32;34109;-62
2024/01/26 04:53:03;;;;;;;;;;;;;;;5.92;58.50;101230.75;5370158;32;34683;-61
2024/01/26 04:56:09;;;;;;;;;;;;;;;5.74;59.09;101228.25;5355371;32;36406;-65
2024/01/26 04:59:11;;;;;;;;;;;;;;;5.87;59.03;101224.69;5374012;32;36410;-66
2024/01/26 05:02:13;;;;;;;;;;;;;;;5.39;59.92;101219.72;5368843;32;35550;-63
2024/01/26 05:05:15;;;;;;;;;;;;;;;5.38;60.57;101215.38;5370960;32;34526;-66
2024/01/26 05:08:18;;;;;;;;;;;;;;;5.29;60.85;101212.84;5366435;32;34881;-62
2024/01/26 05:11:20;;;;;;;;;;;;;;;5.23;61.10;101215.47;5373527;32;34768;-63
2024/01/26 05:14:22;;;;;;;;;;;;;;;5.75;59.77;101224.78;5357502;32;35288;-62
2024/01/26 05:17:25;;;;;;;;;;;;;;;5.80;59.03;101218.66;5371542;32;35544;-62
2024/01/26 05:20:27;;;;;;;;;;;;;;;5.68;60.06;101223.94;5360093;32;34993;-62
2024/01/26 05:23:29;;;;;;;;;;;;;;;5.50;60.35;101239.69;5369774;32;34808;-63
2024/01/26 05:26:31;;;;;;;;;;;;;;;5.50;60.91;101224.91;5369650;32;35903;-65
2024/01/26 05:29:33;;;;;;;;;;;;;;;5.00;62.12;101240.72;5355787;32;34594;-67
2024/01/26 05:32:36;;;;;;;;;;;;;;;5.11;61.86;101246.78;5358675;32;34672;-63
2024/01/26 05:35:38;;;;;;;;;;;;;;;5.17;61.66;101241.56;5368332;32;34417;-66
2024/01/26 05:38:40;;;;;;;;;;;;;;;5.13;62.18;101230.25;5367680;32;34892;-65
2024/01/26 05:41:42;;;;;;;;;;;;;;;5.09;61.96;101222.47;5372567;32;34690;-66
2024/01/26 05:44:45;;;;;;;;;;;;;;;5.04;62.79;101219.00;5356553;32;35531;-62
2024/01/26 05:47:47;;;;;;;;;;;;;;;4.98;62.96;101214.69;5361397;32;35000;-62
2024/01/26 05:50:49;;;;;;;;;;;;;;;4.79;62.85;101226.87;5355305;32;34615;-62
2024/01/26 05:53:52;;;;;;;;;;;;;;;4.97;62.96;101232.94;5360850;32;34862;-62
2024/01/26 05:56:54;;;;;;;;;;;;;;;4.87;63.15;101225.12;5366662;32;35354;-63
2024/01/26 05:59:57;;;;;;;;;;;;;;;4.99;62.45;101220.75;5359394;32;34389;-64
2024/01/26 06:02:59;;;;;;;;;;;;;;;4.97;62.50;101225.12;5370817;32;35341;-62
2024/01/26 06:06:01;;;;;;;;;;;;;;;5.54;60.55;101230.94;5371341;32;34512;-65
2024/01/26 06:09:03;;;;;;;;;;;;;;;5.55;60.32;101211.84;5360615;32;34222;-63
2024/01/26 06:12:06;;;;;;;;;;;;;;;5.44;59.92;101211.88;5354420;32;35080;-65
2024/01/26 06:15:08;;;;;;;;;;;;;;;5.40;60.41;101229.28;5372309;32;35174;-62
2024/01/26 06:18:10;;;;;;;;;;;;;;;5.32;60.19;101232.78;5369089;32;35168;-63
2024/01/26 06:21:12;;;;;;;;;;;;;;;5.38;60.28;101230.16;5367764;32;35231;-63
2024/01/26 06:24:15;;;;;;;;;;;;;;;5.78;58.94;101227.34;5376631;32;35444;-62
2024/01/26 06:27:17;;;;;;;;;;;;;;;5.80;58.56;101228.22;5356799;32;34913;-64
2024/01/26 06:30:19;;;;;;;;;;;;;;;5.17;60.56;101225.91;5373425;32;35041;-62
2024/01/26 06:33:21;;;;;;;;;;;;;;;5.50;59.72;101244.91;5371270;32;34766;-63
2024/01/26 06:36:26;;;;;;;;;;;;;;;5.57;59.69;101247.47;5374346;32;36469;-62
2024/01/26 06:39:28;;;;;;;;;;;;;;;5.54;59.24;101252.72;5374541;32;34989;-66
2024/01/26 06:42:32;;;;;;;;;;;;;;;5.70;59.33;101248.25;5362994;32;35179;-67
2024/01/26 06:45:34;;;;;;;;;;;;;;;5.98;58.71;101259.44;5373613;32;34009;-64
2024/01/26 06:48:36;;;;;;;;;;;;;;;5.47;59.76;101263.16;5379441;32;34335;-65
2024/01/26 06:51:38;;;;;;;;;;;;;;;5.89;58.64;101265.53;5376560;32;37064;-68
2024/01/26 06:54:41;;;;;;;;;;;;;;;5.77;58.62;101268.22;5384235;32;34290;-63
2024/01/26 06:57:43;;;;;;;;;;;;;;;5.91;58.37;101261.22;5377213;32;34800;-63
2024/01/26 07:00:46;;;;;;;;;;;;;;;5.77;58.75;101270.81;5373577;32;34618;-62
2024/01/26 07:03:48;;;;;;;;;;;;;;;5.82;59.16;101260.37;5374428;32;34261;-65
2024/01/26 07:06:51;;;;;;;;;;;;;;;5.61;58.88;101258.75;5378033;32;34468;-62
2024/01/26 07:09:53;;;;;;;;;;;;;;;5.80;58.74;101255.19;5368596;32;34645;-64
2024/01/26 07:12:55;;;;;;;;;;;;;;;6.21;57.62;101256.66;5382749;32;34822;-64
2024/01/26 07:15:57;;;;;;;;;;;;;;;6.42;57.09;101277.37;5378799;32;34366;-68
2024/01/26 07:18:59;;;;;;;;;;;;;;;6.33;56.89;101274.84;5367855;32;34890;-62
2024/01/26 07:22:01;;;;;;;;;;;;;;;6.54;55.73;101271.19;5385085;32;35006;-65
2024/01/26 07:25:09;;;;;;;;;;;;;;;5.90;57.71;101269.88;5378580;32;35163;-62
2024/01/26 07:28:12;;;;;;;;;;;;;;;6.46;56.46;101279.09;5383961;32;35021;-63
2024/01/26 07:31:14;;;;;;;;;;;;;;;6.43;55.89;101286.94;5364299;32;34878;-62
2024/01/26 07:34:18;;;;;;;;;;;;;;;6.66;55.66;101285.91;5383662;32;34843;-66
2024/01/26 07:37:21;;;;;;;;;;;;;;;6.10;56.94;101284.59;5384258;32;34399;-63
2024/01/26 07:40:22;;;;;;;;;;;;;;;6.27;56.94;101295.78;5381063;32;34791;-64
2024/01/26 07:43:24;;;;;;;;;;;;;;;5.93;57.70;101301.22;5380358;32;34774;-66
2024/01/26 07:46:26;;;;;;;;;;;;;;;6.30;57.07;101303.59;5380564;32;34889;-67
2024/01/26 07:49:28;;;;;;;;;;;;;;;6.17;56.91;101317.59;5384917;32;35314;-64
2024/01/26 07:52:35;;;;;;;;;;;;;;;6.36;56.31;101319.22;5381596;32;34133;-66
2024/01/26 07:55:37;;;;;;;;;;;;;;;6.75;55.41;101312.81;5381759;32;34954;-63
2024/01/26 07:58:39;;;;;;;;;;;;;;;6.86;54.87;101317.09;5378694;32;35180;-61
2024/01/26 08:01:43;;;;;;;;;;;;;;;6.43;56.01;101331.34;5375647;32;34717;-63
2024/01/26 08:04:45;;;;;;;;;;;;;;;6.99;54.89;101327.41;5383996;32;34373;-62
2024/01/26 08:07:47;;;;;;;;;;;;;;;6.62;54.98;101320.75;5387773;32;34628;-62
2024/01/26 08:10:49;;;;;;;;;;;;;;;6.81;54.79;101316.25;5370622;32;35503;-66
2024/01/26 08:13:51;;;;;;;;;;;;;;;6.56;55.42;101318.19;5383044;32;34565;-63
2024/01/26 08:16:54;;;;;;;;;;;;;;;6.76;54.32;101304.13;5372053;32;34664;-65
2024/01/26 08:19:59;;;;;;;;;;;;;;;5.69;57.49;101315.22;5385225;32;35092;-65
2024/01/26 08:23:01;;;;;;;;;;;;;;;6.09;56.93;101304.59;5383291;32;35134;-63
2024/01/26 08:26:03;;;;;;;;;;;;;;;6.66;55.38;101298.97;5380718;32;34748;-63
2024/01/26 08:29:05;;;;;;;;;;;;;;;6.15;56.01;101303.69;5382045;32;34172;-65
2024/01/26 08:32:10;;;;;;;;;;;;;;;6.51;55.35;101300.84;5373357;32;37205;-65
2024/01/26 08:35:12;;;;;;;;;;;;;;;7.17;53.76;101302.84;5368684;32;34604;-68
2024/01/26 08:38:15;;;;;;;;;;;;;;;6.24;55.29;101295.78;5385615;32;34692;-66
2024/01/26 08:41:17;;;;;;;;;;;;;;;6.55;54.75;101290.34;5382701;32;34475;-63
2024/01/26 08:44:19;;;;;;;;;;;;;;;7.13;53.62;101292.41;5366356;32;35245;-63
2024/01/26 08:47:21;;;;;;;;;;;;;;;6.64;55.25;101298.13;5386111;32;34557;-63
2024/01/26 08:50:23;;;;;;;;;;;;;;;6.43;55.50;101302.63;5383452;32;35077;-62
2024/01/26 08:53:25;;;;;;;;;;;;;;;6.39;56.36;101295.72;5384421;32;35173;-62
2024/01/26 08:56:27;;;;;;;;;;;;;;;6.23;56.55;101301.91;5367565;32;35248;-63
2024/01/26 08:59:29;;;;;;;;;;;;;;;6.77;54.38;101299.75;5384634;32;35471;-66
2024/01/26 09:02:31;;;;;;;;;;;;;;;6.54;55.36;101306.91;5381390;32;35752;-66
2024/01/26 09:05:34;;;;;;;;;;;;;;;6.69;54.73;101306.78;5381360;32;34944;-65
2024/01/26 09:08:36;;;;;;;;;;;;;;;6.49;55.00;101323.47;5390719;32;34688;-65
2024/01/26 09:11:37;;;;;;;;;;;;;;;6.37;55.59;101317.47;5380062;32;34247;-63
2024/01/26 09:14:40;;;;;;;;;;;;;;;6.70;54.07;101321.59;5389037;32;34381;-62
2024/01/26 09:17:42;;;;;;;;;;;;;;;7.04;52.94;101319.53;5382615;32;35731;-66
2024/01/26 09:20:48;;;;;;;;;;;;;;;6.55;53.85;101313.84;5370054;32;34472;-67
2024/01/26 09:23:50;;;;;;;;;;;;;;;6.98;53.19;101311.75;5381472;32;34256;-65
2024/01/26 09:26:55;;;;;;;;;;;;;;;6.81;52.69;101317.12;5381667;32;34463;-62
2024/01/26 09:29:57;;;;;;;;;;;;;;;7.13;52.67;101316.81;5374394;32;34553;-67
2024/01/26 09:33:00;;;;;;;;;;;;;;;7.29;51.84;101314.91;5381460;32;35171;-66
2024/01/26 09:36:02;;;;;;;;;;;;;;;7.62;50.97;101320.66;5371863;32;34687;-63
2024/01/26 09:39:04;;;;;;;;;;;;;;;7.06;52.93;101330.81;5369851;32;34904;-67
2024/01/26 09:42:06;;;;;;;;;;;;;;;6.98;52.63;101320.44;5382681;32;34255;-63
2024/01/26 09:45:09;;;;;;;;;;;;;;;7.72;50.83;101317.00;5384651;32;34244;-62
2024/01/26 09:48:11;;;;;;;;;;;;;;;7.73;50.13;101337.06;5368018;32;34721;-65
2024/01/26 09:51:13;;;;;;;;;;;;;;;7.73;50.37;101335.34;5372631;32;35230;-63
2024/01/26 09:54:15;;;;;;;;;;;;;;;7.63;50.38;101335.47;5377250;32;35069;-65
2024/01/26 09:57:20;;;;;;;;;;;;;;;7.58;50.84;101322.41;5373269;32;35578;-63
2024/01/26 10:00:23;;;;;;;;;;;;;;;7.62;50.63;101318.91;5377476;32;35526;-66
2024/01/26 10:03:25;;;;;;;;;;;;;;;7.50;50.86;101321.66;5378793;32;35721;-67
2024/01/26 10:06:27;;;;;;;;;;;;;;;7.64;50.26;101311.03;5358306;32;35458;-63
2024/01/26 10:09:29;;;;;;;;;;;;;;;8.03;49.25;101315.72;5387049;32;34973;-66
2024/01/26 10:12:31;;;;;;;;;;;;;;;7.46;50.49;101307.72;5384590;32;35561;-65
2024/01/26 10:15:33;;;;;;;;;;;;;;;7.94;49.41;101315.00;5362325;32;35356;-65
2024/01/26 10:18:42;;;;;;;;;;;;;;;7.92;48.87;101309.81;5371169;32;34362;-65
2024/01/26 10:21:44;;;;;;;;;;;;;;;7.66;49.47;101317.94;5380334;32;35435;-66
2024/01/26 10:24:46;;;;;;;;;;;;;;;7.65;49.70;101302.28;5371797;32;36256;-66
2024/01/26 10:27:48;;;;;;;;;;;;;;;7.98;48.73;101295.72;5384009;32;36131;-63
2024/01/26 10:30:51;;;;;;;;;;;;;;;8.03;48.38;101297.41;5366542;32;34988;-64
2024/01/26 10:33:54;;;;;;;;;;;;;;;7.82;49.22;101297.72;5384455;32;34769;-65
2024/01/26 10:36:56;;;;;;;;;;;;;;;10.96;42.59;101282.78;5383862;32;34672;-66
2024/01/26 10:40:02;;;;;;;;;;;;;;;11.32;41.04;101270.38;5374485;32;34321;-67
2024/01/26 10:43:03;;;;;;;;;;;;;;;11.98;39.68;101267.59;5365750;32;34246;-67
2024/01/26 10:46:06;;;;;;;;;;;;;;;11.72;39.75;101263.09;5380860;32;34193;-63
2024/01/26 10:49:09;;;;;;;;;;;;;;;12.29;39.19;101271.00;5370689;32;34556;-66
2024/01/26 10:52:11;;;;;;;;;;;;;;;12.50;38.06;101276.50;5368099;32;34896;-62
2024/01/26 10:55:14;;;;;;;;;;;;;;;12.71;37.59;101270.50;5372105;32;34726;-64
2024/01/26 10:58:16;;;;;;;;;;;;;;;11.66;39.75;101287.87;5367668;32;35295;-65
2024/01/26 11:01:19;;;;;;;;;;;;;;;11.11;40.18;101284.13;5379056;32;34275;-63
2024/01/26 11:04:21;;;;;;;;;;;;;;;13.10;37.16;101281.47;5385116;32;35693;-62
2024/01/26 11:07:23;;;;;;;;;;;;;;;11.55;39.47;101276.78;5381810;32;35261;-65
2024/01/26 11:10:26;;;;;;;;;;;;;;;12.03;38.69;101294.66;5374419;32;34536;-68
2024/01/26 11:13:28;;;;;;;;;;;;;;;12.24;37.68;101280.00;5371163;32;35075;-63
2024/01/26 11:16:40;;;;;;;;;;;;;;;12.00;38.18;101278.97;5370747;32;35092;-65
2024/01/26 11:19:47;;;;;;;;;;;;;;;12.46;37.57;101270.47;5371187;32;34873;-62
2024/01/26 11:22:58;;;;;;;;;;;;;;;12.46;37.33;101266.06;5389081;32;35807;-68
2024/01/26 11:26:00;;;;;;;;;;;;;;;12.38;37.52;101257.53;5382038;32;35070;-66
2024/01/26 11:29:12;;;;;;;;;;;;;;;11.96;37.21;101256.25;5383581;32;35919;-63
2024/01/26 11:32:17;;;;;;;;;;;;;;;13.48;35.37;101255.50;5372210;32;34302;-64
2024/01/26 11:35:20;;;;;;;;;;;;;;;12.82;36.10;101255.19;5369752;32;34490;-66
2024/01/26 11:38:22;;;;;;;;;;;;;;;12.93;36.40;101253.00;5390686;32;35039;-67
2024/01/26 11:41:26;;;;;;;;;;;;;;;14.31;34.50;101240.75;5369039;32;34675;-63
2024/01/26 11:44:31;;;;;;;;;;;;;;;12.81;36.53;101252.56;5373962;32;34237;-66
2024/01/26 11:47:36;;;;;;;;;;;;;;;12.73;35.65;101247.56;5382746;32;35812;-67
2024/01/26 11:50:42;;;;;;;;;;;;;;;13.23;35.72;101253.75;5381664;32;34614;-66
2024/01/26 11:53:45;;;;;;;;;;;;;;;13.06;35.77;101249.94;5386343;32;35526;-68
2024/01/26 11:56:47;;;;;;;;;;;;;;;12.03;37.65;101244.63;5382851;32;34284;-66
2024/01/26 11:59:49;;;;;;;;;;;;;;;11.90;37.45;101242.34;5384334;32;35039;-66
2024/01/26 12:02:51;;;;;;;;;;;;;;;12.43;36.71;101237.16;5381013;32;34972;-66
2024/01/26 12:05:54;;;;;;;;;;;;;;;11.65;38.26;101241.34;5380317;32;34457;-63
2024/01/26 12:08:56;;;;;;;;;;;;;;;13.05;36.45;101229.75;5386524;32;35352;-64
2024/01/26 12:12:02;;;;;;;;;;;;;;;14.37;33.22;101205.25;5371834;32;35737;-66
2024/01/26 12:15:07;;;;;;;;;;;;;;;15.14;31.87;101187.81;5385202;32;34175;-65
2024/01/26 12:18:10;;;;;;;;;;;;;;;14.38;32.91;101198.19;5373153;32;34315;-64
2024/01/26 12:21:14;;;;;;;;;;;;;;;15.97;30.64;101181.25;5380916;32;34984;-66
2024/01/26 12:24:16;;;;;;;;;;;;;;;15.48;31.49;101183.59;5384984;32;34317;-64
2024/01/26 12:27:18;;;;;;;;;;;;;;;17.48;28.80;101178.72;5380487;32;34695;-67
2024/01/26 12:30:21;;;;;;;;;;;;;;;15.59;30.04;101172.50;5384483;32;34439;-68
2024/01/26 12:33:23;;;;;;;;;;;;;;;14.58;31.75;101182.37;5370610;32;34608;-65
2024/01/26 12:36:31;;;;;;;;;;;;;;;16.34;29.55;101171.47;5371419;32;34242;-63
2024/01/26 12:39:33;;;;;;;;;;;;;;;15.79;29.46;101176.88;5370640;32;36980;-67
2024/01/26 12:42:35;;;;;;;;;;;;;;;15.04;30.93;101170.59;5379607;32;36041;-64
2024/01/26 12:45:37;;;;;;;;;;;;;;;15.16;30.88;101167.41;5367077;32;35138;-68
2024/01/26 12:48:39;;;;;;;;;;;;;;;13.93;33.21;101170.94;5379402;32;34753;-63
2024/01/26 12:51:41;;;;;;;;;;;;;;;13.26;33.95;101173.56;5380785;32;34633;-67
2024/01/26 12:54:43;;;;;;;;;;;;;;;13.25;33.94;101151.59;5378033;32;34809;-67
2024/01/26 12:57:46;;;;;;;;;;;;;;;13.72;34.14;101163.88;5365071;32;34560;-64
2024/01/26 13:00:49;;;;;;;;;;;;;;;16.30;30.07;101148.72;5360547;32;35986;-68
2024/01/26 13:03:51;;;;;;;;;;;;;;;15.60;30.51;101137.12;5359512;32;34832;-65
2024/01/26 13:06:53;;;;;;;;;;;;;;;15.55;30.92;101129.38;5362658;32;34729;-66
2024/01/26 13:09:55;;;;;;;;;;;;;;;14.11;32.37;101134.97;5372135;32;34788;-63
2024/01/26 13:12:57;;;;;;;;;;;;;;;15.16;31.97;101124.19;5377492;32;34619;-63
2024/01/26 13:15:59;;;;;;;;;;;;;;;17.07;28.91;101119.91;5360082;32;35498;-67
2024/01/26 13:19:01;;;;;;;;;;;;;;;16.78;28.51;101130.28;5364922;32;35423;-65
2024/01/26 13:22:04;;;;;;;;;;;;;;;17.93;27.44;101115.09;5374795;32;35419;-63
2024/01/26 13:25:08;;;;;;;;;;;;;;;16.87;27.73;101118.28;5361431;32;34311;-66
2024/01/26 13:28:11;;;;;;;;;;;;;;;15.73;29.42;101126.81;5362086;32;34388;-64
2024/01/26 13:31:13;;;;;;;;;;;;;;;15.15;30.57;101117.16;5372480;32;34589;-63
2024/01/26 13:34:17;;;;;;;;;;;;;;;15.41;30.79;101123.88;5373791;32;35306;-66
2024/01/26 13:37:22;;;;;;;;;;;;;;;13.99;31.73;101128.41;5376126;32;35111;-63
2024/01/26 13:40:24;;;;;;;;;;;;;;;11.85;34.98;101135.41;5363748;32;35035;-66
2024/01/26 13:43:29;;;;;;;;;;;;;;;12.67;34.42;101134.38;5365892;32;34890;-63
2024/01/26 13:46:31;;;;;;;;;;;;;;;12.01;35.69;101146.34;5373801;32;35439;-68
2024/01/26 13:49:33;;;;;;;;;;;;;;;10.91;37.31;101142.66;5382114;32;35425;-62
2024/01/26 13:52:35;;;;;;;;;;;;;;;11.24;36.84;101132.03;5373979;32;34466;-64
2024/01/26 13:55:37;;;;;;;;;;;;;;;11.53;36.21;101137.28;5374967;32;35417;-64
2024/01/26 13:58:39;;;;;;;;;;;;;;;12.50;34.28;101126.22;5353764;32;34277;-64
2024/01/26 14:01:41;;;;;;;;;;;;;;;11.20;36.38;101130.41;5373385;32;35035;-65
2024/01/26 14:04:43;;;;;;;;;;;;;;;11.15;36.22;101120.03;5370824;32;34703;-65
2024/01/26 14:07:45;;;;;;;;;;;;;;;10.62;37.41;101134.69;5362695;32;35213;-67
2024/01/26 14:10:47;;;;;;;;;;;;;;;11.11;36.51;101139.44;5372208;32;34980;-65
2024/01/26 14:13:52;;;;;;;;;;;;;;;11.35;36.12;101138.72;5357953;32;35446;-65
2024/01/26 14:16:54;;;;;;;;;;;;;;;10.60;37.20;101149.66;5378526;32;34988;-63
2024/01/26 14:19:56;;;;;;;;;;;;;;;10.52;37.09;101150.72;5373426;32;34636;-65
2024/01/26 14:22:59;;;;;;;;;;;;;;;9.99;38.54;101152.06;5372402;32;34783;-63
2024/01/26 14:26:01;;;;;;;;;;;;;;;10.48;37.88;101138.56;5357591;32;34345;-66
2024/01/26 14:29:10;;;;;;;;;;;;;;;10.35;38.60;101136.31;5371690;32;34791;-65
2024/01/26 14:32:12;;;;;;;;;;;;;;;10.21;39.18;101129.59;5370384;32;34910;-63
2024/01/26 14:35:14;;;;;;;;;;;;;;;10.15;39.59;101135.03;5368822;32;35536;-64
2024/01/26 14:38:18;;;;;;;;;;;;;;;9.66;40.93;101128.34;5371542;32;34263;-64
2024/01/26 14:41:20;;;;;;;;;;;;;;;9.82;40.58;101130.59;5368032;32;34928;-63
2024/01/26 14:44:22;;;;;;;;;;;;;;;9.43;41.42;101128.00;5378736;32;34024;-69
2024/01/26 14:47:24;;;;;;;;;;;;;;;9.61;41.35;101127.59;5362502;32;35783;-63
2024/01/26 14:50:26;;;;;;;;;;;;;;;9.28;41.82;101123.12;5356679;32;35003;-67
2024/01/26 14:53:29;;;;;;;;;;;;;;;8.91;43.00;101132.63;5374256;32;34351;-66
2024/01/26 14:56:31;;;;;;;;;;;;;;;9.71;41.19;101129.09;5366941;32;35178;-64
2024/01/26 14:59:33;;;;;;;;;;;;;;;9.91;40.98;101120.72;5361726;32;35443;-67
2024/01/26 15:02:36;;;;;;;;;;;;;;;9.04;42.81;101119.25;5367130;32;34226;-63
2024/01/26 15:05:38;;;;;;;;;;;;;;;9.62;42.01;101115.34;5355806;32;35402;-66
2024/01/26 15:08:41;;;;;;;;;;;;;;;9.53;42.08;101124.25;5366041;32;34961;-66
2024/01/26 15:11:44;;;;;;;;;;;;;;;9.99;41.40;101115.31;5368904;32;34973;-67
2024/01/26 15:14:46;;;;;;;;;;;;;;;9.64;41.99;101121.41;5379326;32;35563;-64
2024/01/26 15:17:48;;;;;;;;;;;;;;;9.95;41.69;101111.03;5369738;32;36942;-67
2024/01/26 15:20:51;;;;;;;;;;;;;;;9.95;42.03;101122.38;5379753;32;35641;-66
2024/01/26 15:23:53;;;;;;;;;;;;;;;9.84;42.25;101107.78;5371661;32;34792;-66
2024/01/26 15:26:55;;;;;;;;;;;;;;;9.40;43.02;101099.22;5367265;32;34727;-63
2024/01/26 15:29:58;;;;;;;;;;;;;;;9.40;43.50;101097.47;5374857;32;34531;-65
2024/01/26 15:33:00;;;;;;;;;;;;;;;9.64;42.54;101098.63;5356155;32;34964;-66
2024/01/26 15:36:03;;;;;;;;;;;;;;;9.72;42.45;101112.47;5374491;32;35159;-64
2024/01/26 15:39:06;;;;;;;;;;;;;;;9.29;44.03;101119.59;5370163;32;35040;-63
2024/01/26 15:42:08;;;;;;;;;;;;;;;9.24;44.17;101111.81;5374730;32;34565;-64
2024/01/26 15:45:10;;;;;;;;;;;;;;;9.00;45.28;101109.72;5370576;32;34699;-62